Time;durP1;ratioP1;P1;durP2;ratioP2;P2;SDS_P1;SDS_P2;PMS_P1;PMS_P2;Temp;Humidity;BMP_temperature;BMP_pressure;BME280_temperature;BME280_humidity;BME280_pressure;Samples;Min_cycle;Max_cycle;Signal;HPM_P1;HPM_P2
2021/12/12 00:01:36;;;;;;;0.03;0.03;;;3.80;99.90;;;;;;4990056;28;20441;-71
2021/12/12 00:04:13;;;;;;;0.30;0.30;;;3.80;99.90;;;;;;4973802;28;20085;-70
2021/12/12 00:06:54;;;;;;;0.20;0.20;;;3.80;99.90;;;;;;4973899;28;20039;-71
2021/12/12 00:09:33;;;;;;;4.78;2.72;;;3.70;99.90;;;;;;4989789;28;20049;-70
2021/12/12 00:12:06;;;;;;;0.00;0.00;;;3.60;99.90;;;;;;4975011;28;20045;-71
2021/12/12 00:14:34;;;;;;;0.10;0.10;;;3.60;99.90;;;;;;4989507;28;20039;-70
2021/12/12 00:17:03;;;;;;;0.10;0.10;;;3.60;99.90;;;;;;4974575;28;20031;-70
2021/12/12 00:19:30;;;;;;;0.00;0.00;;;3.50;99.90;;;;;;4974687;28;20046;-70
2021/12/12 00:22:00;;;;;;;0.00;0.00;;;3.50;99.90;;;;;;4974572;28;20063;-70
2021/12/12 00:24:27;;;;;;;0.20;0.20;;;3.40;99.90;;;;;;4989441;28;20089;-70
2021/12/12 00:26:55;;;;;;;0.10;0.10;;;3.40;99.90;;;;;;4989618;28;20530;-70
2021/12/12 00:29:23;;;;;;;0.98;0.98;;;3.40;99.90;;;;;;4974393;28;20026;-70
2021/12/12 00:31:53;;;;;;;0.15;0.15;;;3.30;99.90;;;;;;4974563;28;20031;-70
2021/12/12 00:34:20;;;;;;;3.05;1.80;;;3.30;99.90;;;;;;4989230;28;20035;-70
2021/12/12 00:36:46;;;;;;;0.00;0.00;;;3.30;99.90;;;;;;4989164;28;20062;-70
2021/12/12 00:39:19;;;;;;;0.10;0.10;;;3.30;99.90;;;;;;4974244;28;20118;-70
2021/12/12 00:42:12;;;;;;;5.68;2.80;;;3.20;99.90;;;;;;4973837;28;20486;-70
2021/12/12 00:44:43;;;;;;;0.10;0.10;;;3.20;99.90;;;;;;4972804;28;20035;-70
2021/12/12 00:47:11;;;;;;;0.20;0.20;;;3.10;99.90;;;;;;4974037;28;20047;-70
2021/12/12 00:49:41;;;;;;;0.10;0.10;;;3.10;99.90;;;;;;4988986;28;20035;-70
2021/12/12 00:52:12;;;;;;;0.10;0.10;;;3.10;99.90;;;;;;4974119;28;20119;-70
2021/12/12 00:54:40;;;;;;;0.00;0.00;;;3.10;99.90;;;;;;4974275;28;20031;-70
2021/12/12 00:57:11;;;;;;;0.10;0.10;;;3.00;99.90;;;;;;4988829;28;20491;-70
2021/12/12 00:59:41;;;;;;;1.55;1.13;;;3.00;99.90;;;;;;4974340;28;20031;-70
2021/12/12 01:02:15;;;;;;;0.10;0.10;;;2.90;99.90;;;;;;4988470;28;20061;-70
2021/12/12 01:04:46;;;;;;;0.68;0.68;;;2.90;99.90;;;;;;4972460;28;20550;-70
2021/12/12 01:07:16;;;;;;;;;;;2.90;99.90;;;;;;4974632;28;20031;-70
2021/12/12 01:09:57;;;;;;;0.10;0.10;;;3.00;99.90;;;;;;4973682;28;19921;-70
2021/12/12 01:12:31;;;;;;;0.10;0.10;;;3.00;99.90;;;;;;4988094;28;20050;-70
2021/12/12 01:15:10;;;;;;;0.45;0.45;;;2.90;99.90;;;;;;4988177;28;20046;-70
2021/12/12 01:17:42;;;;;;;0.10;0.10;;;2.80;99.90;;;;;;4973698;28;20089;-70
2021/12/12 01:20:22;;;;;;;0.10;0.10;;;2.90;99.90;;;;;;4973592;28;20042;-70
2021/12/12 01:22:52;;;;;;;0.15;0.15;;;2.80;99.90;;;;;;4973869;28;20038;-70
2021/12/12 01:25:32;;;;;;;0.20;0.20;;;2.90;99.90;;;;;;4988407;28;20077;-71
2021/12/12 01:27:58;;;;;;;0.10;0.10;;;2.90;99.90;;;;;;4973406;28;20472;-70
2021/12/12 01:30:27;;;;;;;0.10;0.10;;;2.90;99.90;;;;;;4988373;28;20645;-70
2021/12/12 01:32:55;;;;;;;0.10;0.10;;;2.90;99.90;;;;;;4973693;28;20034;-70
2021/12/12 01:35:24;;;;;;;0.10;0.10;;;2.90;99.90;;;;;;4973528;28;20045;-70
2021/12/12 01:40:49;;;;;;;0.00;0.00;;;3.00;99.90;;;;;;4985674;28;20050;-71
2021/12/12 01:43:40;;;;;;;0.20;0.20;;;3.00;99.90;;;;;;4973481;28;20113;-70
2021/12/12 01:46:19;;;;;;;7.47;1.70;;;3.10;99.90;;;;;;4973238;28;20117;-71
2021/12/12 01:49:16;;;;;;;0.13;0.13;;;3.10;99.90;;;;;;4988248;28;20042;-70
2021/12/12 01:51:44;;;;;;;0.20;0.20;;;3.10;99.90;;;;;;4972118;28;20062;-71
2021/12/12 01:54:13;;;;;;;0.10;0.10;;;3.10;99.90;;;;;;4989576;28;20436;-70
2021/12/12 01:56:49;;;;;;;3.40;2.22;;;3.10;99.90;;;;;;4976285;28;20034;-70
2021/12/12 01:59:19;;;;;;;0.03;0.03;;;3.00;99.90;;;;;;4977368;28;20038;-71
2021/12/12 02:02:35;;;;;;;0.10;0.10;;;3.10;99.90;;;;;;4977143;28;20035;-70
2021/12/12 02:05:11;;;;;;;0.65;0.65;;;3.10;99.90;;;;;;4994106;28;20517;-71
2021/12/12 02:07:43;;;;;;;0.10;0.10;;;2.90;99.90;;;;;;4975982;28;20089;-70
2021/12/12 02:10:22;;;;;;;0.28;0.25;;;2.80;99.90;;;;;;4991807;28;20109;-70
2021/12/12 02:12:49;;;;;;;0.47;0.47;;;2.70;99.90;;;;;;4976841;28;20426;-70
2021/12/12 02:15:17;;;;;;;0.10;0.10;;;2.60;99.90;;;;;;4977235;28;20115;-71
2021/12/12 02:17:48;;;;;;;0.10;0.10;;;2.60;99.90;;;;;;4992169;28;20035;-71
2021/12/12 02:20:27;;;;;;;0.00;0.00;;;2.50;99.90;;;;;;4977171;28;20027;-71
2021/12/12 02:36:53;;;;;;;0.20;0.20;;;2.50;99.90;;;;;;4976865;28;20041;-70
2021/12/12 02:39:19;;;;;;;0.65;0.65;;;2.50;99.90;;;;;;4991492;28;20038;-70
2021/12/12 02:41:55;;;;;;;5.38;1.23;;;2.40;99.90;;;;;;4976472;28;20085;-70
2021/12/12 02:44:28;;;;;;;0.73;0.73;;;2.30;99.90;;;;;;4990598;28;20034;-70
2021/12/12 02:46:57;;;;;;;0.10;0.10;;;2.20;99.90;;;;;;4974800;28;20058;-70
2021/12/12 02:52:30;;;;;;;0.10;0.10;;;2.20;99.90;;;;;;4976202;28;20027;-70
2021/12/12 02:55:09;;;;;;;0.30;0.30;;;2.00;99.90;;;;;;4976449;28;20027;-70
2021/12/12 02:57:35;;;;;;;0.10;0.10;;;1.90;99.90;;;;;;4990475;28;20034;-70
2021/12/12 03:00:02;;;;;;;0.47;0.47;;;1.80;99.90;;;;;;4976260;28;20162;-70
2021/12/12 03:02:31;;;;;;;4.85;0.90;;;1.80;99.90;;;;;;4976162;28;20438;-70
2021/12/12 03:05:00;;;;;;;0.25;0.25;;;1.90;99.90;;;;;;4990658;28;20075;-70
2021/12/12 03:07:30;;;;;;;0.40;0.40;;;1.90;99.90;;;;;;4975944;28;20472;-70
2021/12/12 03:09:58;;;;;;;0.10;0.10;;;1.90;99.90;;;;;;4974591;28;20031;-70
2021/12/12 03:12:33;;;;;;;2.90;0.63;;;1.90;99.90;;;;;;4975861;28;20027;-69
2021/12/12 03:15:23;;;;;;;0.10;0.10;;;1.90;99.90;;;;;;4975794;28;20026;-70
2021/12/12 03:17:52;;;;;;;0.10;0.10;;;1.90;99.90;;;;;;4990109;28;20038;-71
2021/12/12 03:20:26;;;;;;;1.85;0.80;;;1.90;99.90;;;;;;4990836;28;20070;-70
2021/12/12 03:23:00;;;;;;;0.10;0.10;;;1.90;99.90;;;;;;4975528;28;20027;-69
2021/12/12 03:25:30;;;;;;;0.40;0.40;;;1.90;99.90;;;;;;4975969;28;20030;-69
2021/12/12 03:27:56;;;;;;;0.25;0.25;;;1.90;99.90;;;;;;4990434;28;20549;-70
2021/12/12 03:30:23;;;;;;;0.30;0.20;;;1.90;99.90;;;;;;4990532;28;20122;-70
2021/12/12 03:32:48;;;;;;;0.10;0.10;;;1.80;99.90;;;;;;4975531;28;20388;-70
2021/12/12 03:35:15;;;;;;;0.10;0.10;;;1.90;99.90;;;;;;4975561;28;20035;-71
2021/12/12 03:37:43;;;;;;;0.80;0.80;;;1.90;99.90;;;;;;4975799;28;20055;-70
2021/12/12 03:40:29;;;;;;;0.20;0.20;;;1.90;99.90;;;;;;4990315;28;20035;-71
2021/12/12 03:42:58;;;;;;;0.65;0.65;;;1.90;99.90;;;;;;4989755;28;20403;-70
2021/12/12 03:45:25;;;;;;;0.00;0.00;;;1.80;99.90;;;;;;4975026;28;20086;-69
2021/12/12 03:48:19;;;;;;;1.60;1.08;;;1.80;99.90;;;;;;4974997;28;20035;-70
2021/12/12 03:50:48;;;;;;;0.10;0.10;;;1.90;99.90;;;;;;4988471;28;20038;-69
2021/12/12 03:53:15;;;;;;;0.38;0.38;;;1.90;99.90;;;;;;4990091;28;20031;-69
2021/12/12 03:55:43;;;;;;;0.98;0.95;;;2.00;99.90;;;;;;4975372;28;20027;-69
2021/12/12 03:58:11;;;;;;;0.00;0.00;;;2.10;99.90;;;;;;4989677;28;20033;-70
2021/12/12 04:00:55;;;;;;;0.10;0.10;;;2.10;99.90;;;;;;4975003;28;20030;-69
2021/12/12 04:03:21;;;;;;;1.08;0.90;;;2.10;99.90;;;;;;4974989;28;20037;-69
2021/12/12 04:05:58;;;;;;;0.10;0.10;;;2.10;99.90;;;;;;4989958;28;20035;-70
2021/12/12 04:08:37;;;;;;;0.25;0.25;;;2.00;99.90;;;;;;4989461;28;20034;-70
2021/12/12 04:11:12;;;;;;;0.10;0.10;;;1.90;99.90;;;;;;4974794;28;20093;-71
2021/12/12 04:13:41;;;;;;;0.10;0.10;;;2.00;99.90;;;;;;4989542;28;20085;-71
2021/12/12 04:16:08;;;;;;;0.10;0.10;;;1.90;99.90;;;;;;4973228;28;20046;-71
2021/12/12 04:18:34;;;;;;;0.10;0.10;;;1.90;99.90;;;;;;4974342;28;20035;-70
2021/12/12 04:20:59;;;;;;;0.10;0.10;;;1.90;99.90;;;;;;4974622;28;20122;-71
2021/12/12 04:23:29;;;;;;;0.10;0.10;;;1.80;99.90;;;;;;4973544;28;20038;-70
2021/12/12 04:26:21;;;;;;;0.10;0.10;;;1.70;99.90;;;;;;4973575;28;20035;-70
2021/12/12 04:29:08;;;;;;;0.10;0.10;;;1.70;99.90;;;;;;4988407;28;20097;-70
2021/12/12 04:31:38;;;;;;;0.10;0.10;;;1.60;99.90;;;;;;4989628;28;20038;-71
2021/12/12 04:34:06;;;;;;;0.10;0.10;;;1.60;99.90;;;;;;4974599;28;20070;-71
2021/12/12 04:36:45;;;;;;;0.10;0.10;;;1.60;99.90;;;;;;4989211;28;20043;-71
2021/12/12 04:39:26;;;;;;;0.10;0.10;;;1.70;99.90;;;;;;4974633;28;20499;-71
2021/12/12 04:42:05;;;;;;;0.10;0.10;;;1.70;99.90;;;;;;4974896;28;20094;-71
2021/12/12 04:44:36;;;;;;;0.10;0.10;;;1.70;99.90;;;;;;4974329;28;20041;-69
2021/12/12 04:50:18;;;;;;;0.10;0.10;;;1.70;99.90;;;;;;4974102;28;20097;-69
2021/12/12 04:52:59;;;;;;;0.10;0.10;;;1.70;99.90;;;;;;4974038;28;20035;-70
2021/12/12 04:55:33;;;;;;;0.10;0.10;;;1.70;99.90;;;;;;4974001;28;20033;-69
2021/12/12 04:58:13;;;;;;;0.40;0.40;;;1.70;99.90;;;;;;4973970;28;20061;-70
2021/12/12 05:00:50;;;;;;;0.35;0.35;;;1.70;99.90;;;;;;4988564;28;20027;-70
2021/12/12 05:03:42;;;;;;;0.10;0.10;;;1.60;99.90;;;;;;4988619;28;20089;-70
2021/12/12 05:06:32;;;;;;;;;;;1.60;99.90;;;;;;4985955;28;20450;-70
2021/12/12 05:09:10;;;;;;;0.03;0.03;;;1.60;99.90;;;;;;4985802;28;19961;-69
2021/12/12 05:12:03;;;;;;;0.15;0.15;;;1.50;99.90;;;;;;4973848;28;20066;-69
2021/12/12 05:14:38;;;;;;;0.10;0.10;;;1.50;99.90;;;;;;4987337;28;20054;-69
2021/12/12 05:17:28;;;;;;;0.10;0.10;;;1.50;99.90;;;;;;4988272;28;20059;-70
2021/12/12 05:19:59;;;;;;;0.95;0.95;;;1.50;99.90;;;;;;4972408;28;20400;-70
2021/12/12 05:22:40;;;;;;;0.10;0.10;;;1.50;99.90;;;;;;4988557;28;20031;-70
2021/12/12 05:25:17;;;;;;;0.20;0.20;;;1.50;99.90;;;;;;4988414;28;20077;-69
2021/12/12 05:27:45;;;;;;;2.72;0.90;;;1.50;99.90;;;;;;4972362;28;20400;-69
2021/12/12 05:30:18;;;;;;;0.10;0.10;;;1.50;99.90;;;;;;4988616;28;20472;-69
2021/12/12 05:32:46;;;;;;;0.10;0.10;;;1.60;99.90;;;;;;4988177;28;20041;-69
2021/12/12 05:35:17;;;;;;;0.10;0.10;;;1.60;99.90;;;;;;4988411;28;20046;-70
2021/12/12 05:37:51;;;;;;;0.10;0.10;;;1.60;99.90;;;;;;4988489;28;20452;-71
2021/12/12 05:40:21;;;;;;;0.10;0.10;;;1.60;99.90;;;;;;4988037;28;20034;-71
2021/12/12 05:42:50;;;;;;;0.20;0.20;;;1.70;99.90;;;;;;4973958;28;20035;-71
2021/12/12 05:45:16;;;;;;;0.10;0.10;;;1.80;99.90;;;;;;4987643;28;20050;-71
2021/12/12 05:47:44;;;;;;;0.40;0.35;;;1.80;99.90;;;;;;4988217;28;20035;-71
2021/12/12 05:50:12;;;;;;;0.20;0.20;;;1.80;99.90;;;;;;4988237;28;20057;-71
2021/12/12 05:52:41;;;;;;;0.20;0.20;;;1.80;99.90;;;;;;4973682;28;20181;-71
2021/12/12 05:55:09;;;;;;;0.00;0.00;;;2.00;99.90;;;;;;4988305;28;20105;-71
2021/12/12 05:57:36;;;;;;;0.68;0.68;;;2.10;99.90;;;;;;4973357;28;20388;-71
2021/12/12 06:00:10;;;;;;;0.10;0.10;;;2.10;99.90;;;;;;4973189;28;20035;-71
2021/12/12 06:02:37;;;;;;;0.13;0.13;;;2.20;99.90;;;;;;4973365;28;20034;-71
2021/12/12 06:05:03;;;;;;;0.75;0.73;;;2.20;99.90;;;;;;4988122;28;20045;-71
2021/12/12 06:07:30;;;;;;;0.10;0.10;;;2.20;99.90;;;;;;4973283;28;20384;-71
2021/12/12 06:09:56;;;;;;;0.15;0.15;;;2.30;99.90;;;;;;4988144;28;20038;-71
2021/12/12 06:12:23;;;;;;;1.08;1.08;;;2.30;99.90;;;;;;4988172;28;20034;-71
2021/12/12 06:14:49;;;;;;;0.10;0.10;;;2.30;99.90;;;;;;4988041;28;20443;-70
2021/12/12 06:17:17;;;;;;;0.20;0.20;;;2.30;99.90;;;;;;4971883;28;20113;-70
2021/12/12 06:19:45;;;;;;;0.10;0.10;;;2.40;99.90;;;;;;4988095;28;20059;-70
2021/12/12 06:22:11;;;;;;;0.10;0.10;;;2.50;99.90;;;;;;4988194;28;20027;-70
2021/12/12 06:24:40;;;;;;;0.20;0.20;;;2.60;99.90;;;;;;4973099;28;20046;-69
2021/12/12 06:27:14;;;;;;;0.25;0.25;;;2.60;99.90;;;;;;4987867;28;20571;-68
2021/12/12 06:29:41;;;;;;;0.15;0.15;;;2.60;99.90;;;;;;4973195;28;20039;-69
2021/12/12 06:32:08;;;;;;;0.10;0.10;;;2.60;99.90;;;;;;4971803;28;20039;-69
2021/12/12 06:34:34;;;;;;;0.10;0.10;;;2.60;99.90;;;;;;4973120;28;20035;-75
2021/12/12 06:37:01;;;;;;;0.47;0.47;;;2.60;99.90;;;;;;4988204;28;20118;-72
2021/12/12 06:39:27;;;;;;;2.08;0.95;;;2.60;99.90;;;;;;4988019;28;20042;-72
2021/12/12 06:41:56;;;;;;;0.10;0.10;;;2.60;99.90;;;;;;4975141;28;20035;-73
2021/12/12 06:44:22;;;;;;;0.08;0.08;;;2.60;99.90;;;;;;4976524;28;20034;-72
2021/12/12 06:46:50;;;;;;;0.10;0.10;;;2.50;99.90;;;;;;4991285;28;20488;-70
2021/12/12 06:49:17;;;;;;;1.08;1.08;;;2.50;99.90;;;;;;4991218;28;20046;-71
2021/12/12 06:51:52;;;;;;;0.10;0.10;;;2.50;99.90;;;;;;4991576;28;20074;-74
2021/12/12 06:54:24;;;;;;;0.28;0.28;;;2.40;99.90;;;;;;4976193;28;20038;-72
2021/12/12 06:56:53;;;;;;;0.10;0.10;;;2.30;99.90;;;;;;4990811;28;20027;-73
2021/12/12 06:59:22;;;;;;;1.20;1.17;;;2.30;99.90;;;;;;4975119;28;20117;-67
2021/12/12 07:01:51;;;;;;;0.08;0.08;;;2.20;99.90;;;;;;4976111;28;20118;-72
2021/12/12 07:04:19;;;;;;;0.00;0.00;;;2.20;99.90;;;;;;4990790;28;20054;-72
2021/12/12 07:06:52;;;;;;;0.70;0.68;;;2.20;99.90;;;;;;4990939;28;20069;-71
2021/12/12 07:09:19;;;;;;;0.30;0.30;;;2.20;99.90;;;;;;4975889;28;20492;-71
2021/12/12 07:11:46;;;;;;;0.82;0.50;;;2.30;99.90;;;;;;4976245;28;20027;-71
2021/12/12 07:14:15;;;;;;;0.10;0.10;;;2.30;99.90;;;;;;4975809;28;20082;-71
2021/12/12 07:16:43;;;;;;;1.98;1.00;;;2.20;99.90;;;;;;4975849;28;20041;-71
2021/12/12 07:19:10;;;;;;;0.20;0.20;;;2.20;99.90;;;;;;4976083;28;20035;-70
2021/12/12 07:21:37;;;;;;;0.10;0.10;;;2.20;99.90;;;;;;4975892;28;20027;-69
2021/12/12 07:24:05;;;;;;;0.20;0.20;;;2.30;99.90;;;;;;4975726;28;20492;-70
2021/12/12 07:26:31;;;;;;;0.13;0.13;;;2.20;99.90;;;;;;4990977;28;20031;-69
2021/12/12 07:28:59;;;;;;;0.63;0.63;;;2.30;99.90;;;;;;4990658;28;20031;-72
2021/12/12 07:31:31;;;;;;;0.13;0.13;;;2.30;99.90;;;;;;4974562;28;20491;-68
2021/12/12 07:34:03;;;;;;;0.20;0.20;;;2.30;99.90;;;;;;4975337;28;20039;-67
2021/12/12 07:36:34;;;;;;;1.75;1.48;;;2.40;99.90;;;;;;4975587;28;20074;-66
2021/12/12 07:39:13;;;;;;;0.20;0.20;;;2.30;99.90;;;;;;4974320;28;20035;-62
2021/12/12 07:41:41;;;;;;;0.10;0.10;;;2.30;99.90;;;;;;4990378;28;20130;-71
2021/12/12 07:44:11;;;;;;;0.10;0.10;;;2.30;99.90;;;;;;4975231;28;20038;-70
2021/12/12 07:46:37;;;;;;;0.10;0.10;;;2.20;99.90;;;;;;4989928;28;20404;-73
2021/12/12 07:49:05;;;;;;;1.13;0.85;;;2.30;99.90;;;;;;4974311;28;20043;-67
2021/12/12 07:51:32;;;;;;;0.05;0.05;;;2.30;99.90;;;;;;4974045;28;20035;-67
2021/12/12 07:54:02;;;;;;;0.30;0.30;;;2.30;99.90;;;;;;4974119;28;20057;-66
2021/12/12 07:56:33;;;;;;;0.10;0.10;;;2.30;99.90;;;;;;4989940;28;20093;-67
2021/12/12 07:59:06;;;;;;;1.15;1.10;;;2.40;99.90;;;;;;4973874;28;20041;-69
2021/12/12 08:01:33;;;;;;;0.10;0.10;;;2.50;99.90;;;;;;4975061;28;20130;-66
2021/12/12 08:03:59;;;;;;;0.57;0.43;;;2.50;99.90;;;;;;4990060;28;20049;-67
2021/12/12 08:06:29;;;;;;;0.38;0.38;;;2.50;99.90;;;;;;4973712;28;20031;-67
2021/12/12 08:08:56;;;;;;;3.80;1.10;;;2.40;99.90;;;;;;4975439;28;20026;-68
2021/12/12 08:11:27;;;;;;;0.70;0.63;;;2.40;99.90;;;;;;4989570;28;20035;-69
2021/12/12 08:13:55;;;;;;;0.57;0.57;;;2.40;99.90;;;;;;4973623;28;20039;-69
2021/12/12 08:16:22;;;;;;;2.70;2.38;;;2.40;99.90;;;;;;4973549;28;20476;-68
2021/12/12 08:18:49;;;;;;;0.30;0.30;;;2.40;99.90;;;;;;4989795;28;20126;-66
2021/12/12 08:21:18;;;;;;;6.60;3.10;;;2.40;99.90;;;;;;4989363;28;20491;-68
2021/12/12 08:23:45;;;;;;;1.63;1.52;;;2.50;99.90;;;;;;4989423;28;20063;-66
2021/12/12 08:26:12;;;;;;;0.10;0.10;;;2.50;99.90;;;;;;4989432;28;20104;-66
2021/12/12 08:28:39;;;;;;;1.98;0.75;;;2.60;99.90;;;;;;4989879;28;20096;-68
2021/12/12 08:31:06;;;;;;;0.05;0.05;;;2.60;99.90;;;;;;4974740;28;20033;-67
2021/12/12 08:33:33;;;;;;;0.75;0.75;;;2.70;99.90;;;;;;4974319;28;20050;-71
2021/12/12 08:36:01;;;;;;;0.10;0.10;;;2.80;99.90;;;;;;4974565;28;20388;-71
2021/12/12 08:38:27;;;;;;;0.30;0.30;;;2.80;99.90;;;;;;4974187;28;20034;-67
2021/12/12 08:41:03;;;;;;;0.28;0.28;;;2.80;99.90;;;;;;4974342;28;20039;-69
2021/12/12 08:43:31;;;;;;;0.73;0.73;;;2.80;99.90;;;;;;4988786;28;20035;-70
2021/12/12 08:46:05;;;;;;;0.30;0.30;;;2.70;99.90;;;;;;4974105;28;20054;-69
2021/12/12 08:48:38;;;;;;;3.88;1.45;;;2.70;99.90;;;;;;4974141;28;20061;-70
2021/12/12 08:51:14;;;;;;;0.45;0.45;;;2.80;99.90;;;;;;4972886;28;20111;-68
2021/12/12 08:53:47;;;;;;;0.28;0.28;;;2.80;99.90;;;;;;4974027;28;20466;-68
2021/12/12 08:56:19;;;;;;;0.63;0.63;;;2.90;99.90;;;;;;4988725;28;20089;-69
2021/12/12 08:58:47;;;;;;;2.88;1.77;;;2.90;99.90;;;;;;4972979;28;20089;-68
2021/12/12 09:01:17;;;;;;;0.30;0.30;;;3.00;99.90;;;;;;4973913;28;20093;-69
2021/12/12 09:04:00;;;;;;;1.00;1.00;;;3.00;99.90;;;;;;4973491;28;20026;-68
2021/12/12 09:06:31;;;;;;;0.45;0.45;;;3.10;99.90;;;;;;4988864;28;20031;-69
2021/12/12 09:09:12;;;;;;;1.75;1.65;;;3.10;99.90;;;;;;4972747;28;20045;-66
2021/12/12 09:12:05;;;;;;;0.50;0.50;;;3.10;99.90;;;;;;4973904;28;20035;-67
2021/12/12 09:14:53;;;;;;;6.47;2.83;;;3.20;99.90;;;;;;4972545;28;20571;-66
2021/12/12 09:17:29;;;;;;;4.95;1.23;;;3.20;99.90;;;;;;4972143;28;20041;-67
2021/12/12 09:20:23;;;;;;;0.95;0.95;;;3.30;99.90;;;;;;4972586;28;20042;-65
2021/12/12 09:23:08;;;;;;;0.10;0.10;;;3.30;99.90;;;;;;4972945;28;20050;-65
2021/12/12 09:25:42;;;;;;;0.05;0.05;;;3.40;99.90;;;;;;4973502;28;20118;-66
2021/12/12 09:28:45;;;;;;;0.10;0.10;;;3.50;99.90;;;;;;4973090;28;20125;-66
2021/12/12 09:31:20;;;;;;;0.10;0.10;;;3.60;99.90;;;;;;4973686;28;20537;-66
2021/12/12 09:34:03;;;;;;;0.20;0.20;;;3.70;99.90;;;;;;4972665;28;20070;-67
2021/12/12 09:36:46;;;;;;;0.85;0.85;;;3.60;99.90;;;;;;4972500;28;20081;-66
2021/12/12 09:39:26;;;;;;;0.90;0.65;;;3.60;99.90;;;;;;4973320;28;20031;-67
2021/12/12 09:42:27;;;;;;;0.40;0.40;;;3.60;99.90;;;;;;4973437;28;20037;-66
2021/12/12 09:45:39;;;;;;;0.10;0.10;;;3.80;99.90;;;;;;4973191;28;20048;-67
2021/12/12 09:52:12;;;;;;;0.30;0.30;;;3.90;99.90;;;;;;4973497;28;20030;-69
2021/12/12 09:55:08;;;;;;;0.47;0.47;;;3.90;99.90;;;;;;4973276;28;20038;-67
2021/12/12 09:57:40;;;;;;;0.20;0.20;;;4.00;99.90;;;;;;4973358;28;20122;-69
2021/12/12 10:00:43;;;;;;;0.28;0.20;;;4.10;99.90;;;;;;4972168;28;20080;-66
2021/12/12 10:03:48;;;;;;;0.10;0.10;;;4.20;99.90;;;;;;4973526;28;20117;-63
2021/12/12 10:06:33;;;;;;;0.10;0.10;;;4.20;99.90;;;;;;4972212;28;20494;-62
2021/12/12 10:09:14;;;;;;;0.40;0.35;;;4.20;99.90;;;;;;4973038;28;20037;-63
2021/12/12 10:12:04;;;;;;;0.10;0.10;;;4.20;99.90;;;;;;4973385;28;20031;-62
2021/12/12 10:14:52;;;;;;;0.00;0.00;;;4.30;99.90;;;;;;4971729;28;20065;-62
2021/12/12 10:17:29;;;;;;;1.00;0.80;;;4.30;99.90;;;;;;4970791;28;20035;-67
2021/12/12 10:20:26;;;;;;;0.00;0.00;;;4.40;99.90;;;;;;4971800;28;20031;-66
2021/12/12 10:23:22;;;;;;;3.60;2.45;;;4.40;99.90;;;;;;4960118;28;20040;-67
2021/12/12 10:26:01;;;;;;;1.10;0.95;;;4.40;99.90;;;;;;4956348;29;20031;-68
2021/12/12 10:28:59;;;;;;;0.10;0.10;;;4.40;99.90;;;;;;4971425;28;20108;-68
2021/12/12 10:31:46;;;;;;;0.10;0.10;;;4.40;99.90;;;;;;4971038;28;20028;-69
2021/12/12 10:34:23;;;;;;;0.25;0.25;;;4.40;99.90;;;;;;4957712;28;20142;-70
2021/12/12 10:37:15;;;;;;;0.00;0.00;;;4.50;99.90;;;;;;4971787;28;20121;-68
2021/12/12 10:39:59;;;;;;;0.10;0.10;;;4.60;99.90;;;;;;4957167;29;20066;-70
2021/12/12 10:42:35;;;;;;;4.55;2.25;;;4.60;99.90;;;;;;4973361;28;20027;-69
2021/12/12 10:45:17;;;;;;;0.20;0.20;;;4.70;99.90;;;;;;4976114;28;20049;-76
2021/12/12 10:48:03;;;;;;;0.10;0.10;;;4.70;99.90;;;;;;4990963;28;20034;-69
2021/12/12 10:51:08;;;;;;;0.20;0.20;;;4.70;99.90;;;;;;4976460;28;20027;-66
2021/12/12 10:53:57;;;;;;;0.00;0.00;;;4.70;99.90;;;;;;4976222;28;20434;-67
2021/12/12 10:56:52;;;;;;;1.73;1.20;;;4.80;99.90;;;;;;4992855;28;20051;-63
2021/12/12 10:59:25;;;;;;;0.10;0.10;;;4.80;99.90;;;;;;4989185;28;20484;-58
2021/12/12 11:02:08;;;;;;;0.00;0.00;;;4.70;99.90;;;;;;4991106;28;20081;-58
2021/12/12 11:04:49;;;;;;;0.10;0.10;;;4.70;99.90;;;;;;4990335;28;20097;-61
2021/12/12 11:07:29;;;;;;;0.38;0.38;;;4.70;99.90;;;;;;4976338;28;20031;-61
2021/12/12 11:10:17;;;;;;;0.52;0.52;;;4.70;99.90;;;;;;4976210;28;20122;-68
2021/12/12 11:12:52;;;;;;;0.10;0.10;;;4.70;99.90;;;;;;4976095;28;20392;-69
2021/12/12 11:15:41;;;;;;;0.55;0.55;;;4.70;99.90;;;;;;4976207;28;20117;-70
2021/12/12 11:18:27;;;;;;;0.10;0.10;;;4.80;99.90;;;;;;4989276;28;20097;-69
2021/12/12 11:21:09;;;;;;;0.08;0.08;;;4.70;99.90;;;;;;4975782;28;20392;-70
2021/12/12 11:24:11;;;;;;;0.10;0.10;;;4.70;99.90;;;;;;4973861;28;20058;-69
2021/12/12 11:26:42;;;;;;;1.92;1.30;;;4.80;99.90;;;;;;4975282;28;20034;-68
2021/12/12 11:29:21;;;;;;;0.85;0.85;;;4.90;99.90;;;;;;4974495;28;20061;-69
2021/12/12 11:31:58;;;;;;;0.38;0.38;;;4.90;99.90;;;;;;4990832;28;20035;-69
2021/12/12 11:34:25;;;;;;;0.15;0.15;;;4.80;99.90;;;;;;4973997;28;20038;-69
2021/12/12 11:37:21;;;;;;;1.10;1.10;;;4.90;99.90;;;;;;4975547;28;20042;-69
2021/12/12 11:40:01;;;;;;;18.98;2.83;;;4.90;99.90;;;;;;4975478;28;20042;-69
2021/12/12 11:43:17;;;;;;;2.90;2.40;;;4.90;99.90;;;;;;4974111;28;20054;-68
2021/12/12 11:45:59;;;;;;;0.10;0.10;;;4.90;99.90;;;;;;4976056;28;20062;-70
2021/12/12 11:48:49;;;;;;;;;;;4.90;99.90;;;;;;4975891;28;20031;-68
2021/12/12 11:51:42;;;;;;;0.00;0.00;;;4.90;99.90;;;;;;4974039;28;20350;-69
2021/12/12 11:54:34;;;;;;;0.00;0.00;;;4.90;99.90;;;;;;4975422;28;20515;-68
2021/12/12 11:57:18;;;;;;;0.47;0.47;;;4.80;99.90;;;;;;4975250;28;20054;-68
2021/12/12 11:59:59;;;;;;;0.00;0.00;;;4.90;99.90;;;;;;4958850;28;20089;-71
2021/12/12 12:02:36;;;;;;;0.10;0.10;;;4.90;99.90;;;;;;4974147;28;20085;-76
2021/12/12 12:05:30;;;;;;;0.00;0.00;;;4.80;99.90;;;;;;4975233;28;20035;-67
2021/12/12 12:08:18;;;;;;;0.00;0.00;;;4.90;99.90;;;;;;4975059;28;20042;-66
2021/12/12 12:11:26;;;;;;;0.00;0.00;;;4.80;99.90;;;;;;4974964;28;20038;-66
2021/12/12 12:14:07;;;;;;;0.10;0.10;;;4.90;99.90;;;;;;4985017;28;20519;-66
2021/12/12 12:16:52;;;;;;;1.55;1.45;;;4.90;99.90;;;;;;4974931;28;20035;-66
2021/12/12 12:19:56;;;;;;;0.45;0.45;;;4.90;99.90;;;;;;4974963;28;20051;-66
2021/12/12 12:22:45;;;;;;;0.10;0.10;;;4.90;99.90;;;;;;4974966;28;20031;-67
2021/12/12 12:26:50;;;;;;;9.65;1.27;;;4.90;99.90;;;;;;4974787;28;20502;-67
2021/12/12 12:28:49;;;;;;;0.00;0.00;;;4.90;99.90;;;;;;4974304;28;20535;-66
2021/12/12 12:31:34;;;;;;;0.08;0.08;;;4.90;99.90;;;;;;4973542;28;20113;-67
2021/12/12 12:34:50;;;;;;;2.83;1.65;;;4.90;99.90;;;;;;4974814;28;20064;-70
2021/12/12 12:38:12;;;;;;;32.53;1.40;;;5.00;99.90;;;;;;4974109;28;20034;-66
2021/12/12 12:41:18;;;;;;;;;;;5.00;99.90;;;;;;4974825;28;20077;-68
2021/12/12 12:44:41;;;;;;;0.10;0.10;;;4.90;99.90;;;;;;4974281;28;19914;-68
2021/12/12 12:47:40;;;;;;;0.05;0.05;;;5.00;99.90;;;;;;4973975;28;20130;-68
2021/12/12 12:50:53;;;;;;;0.88;0.70;;;5.00;99.90;;;;;;4974425;28;20030;-67
2021/12/12 12:54:16;;;;;;;0.10;0.10;;;5.00;99.90;;;;;;4992548;28;20368;-68
2021/12/12 12:57:17;;;;;;;0.00;0.00;;;5.00;99.90;;;;;;4974020;28;20039;-68
2021/12/12 12:59:55;;;;;;;0.10;0.10;;;5.10;99.90;;;;;;4972488;28;20042;-68
2021/12/12 13:02:49;;;;;;;0.32;0.32;;;5.10;99.90;;;;;;4974203;28;20373;-68
2021/12/12 13:05:33;;;;;;;0.10;0.10;;;5.10;99.90;;;;;;4974136;28;20046;-68
2021/12/12 13:08:36;;;;;;;0.00;0.00;;;5.10;99.90;;;;;;4974015;28;20042;-67
2021/12/12 13:11:07;;;;;;;0.00;0.00;;;5.10;99.90;;;;;;4974151;28;20381;-67
2021/12/12 13:13:58;;;;;;;0.10;0.10;;;5.10;99.90;;;;;;4972783;28;20121;-67
2021/12/12 13:16:55;;;;;;;0.63;0.63;;;5.10;99.90;;;;;;4972904;28;20082;-68
2021/12/12 13:20:01;;;;;;;0.00;0.00;;;5.10;99.90;;;;;;4973708;28;20486;-68
2021/12/12 13:22:35;;;;;;;0.10;0.10;;;5.10;99.90;;;;;;4973555;28;20031;-68
2021/12/12 13:25:18;;;;;;;0.10;0.10;;;5.10;99.90;;;;;;4972108;28;20039;-67
2021/12/12 13:28:26;;;;;;;0.45;0.45;;;5.10;99.90;;;;;;4973735;28;20039;-67
2021/12/12 13:31:35;;;;;;;0.00;0.00;;;5.10;99.90;;;;;;4972265;28;20039;-67
2021/12/12 13:34:40;;;;;;;5.70;2.53;;;5.20;99.90;;;;;;4962687;28;20043;-67
2021/12/12 13:37:20;;;;;;;0.00;0.00;;;5.20;99.90;;;;;;4979878;28;20077;-68
2021/12/12 13:40:16;;;;;;;0.05;0.05;;;5.20;99.90;;;;;;4973349;28;20046;-67
2021/12/12 13:43:11;;;;;;;0.10;0.10;;;5.10;99.90;;;;;;4972387;28;20384;-72
2021/12/12 13:46:10;;;;;;;0.00;0.00;;;5.10;99.90;;;;;;4972087;28;20042;-69
2021/12/12 13:49:12;;;;;;;0.20;0.20;;;5.20;99.90;;;;;;4973787;28;20041;-70
2021/12/12 13:52:03;;;;;;;0.03;0.03;;;5.10;99.90;;;;;;4976740;28;20058;-70
2021/12/12 13:54:42;;;;;;;0.10;0.10;;;5.20;99.90;;;;;;4977701;28;20035;-70
2021/12/12 13:57:25;;;;;;;0.52;0.52;;;5.10;99.90;;;;;;4977358;28;20034;-69
2021/12/12 14:00:19;;;;;;;0.00;0.00;;;5.10;99.90;;;;;;4976265;28;20511;-69
2021/12/12 14:02:56;;;;;;;2.08;1.35;;;5.10;99.90;;;;;;4977190;28;20034;-70
2021/12/12 14:05:34;;;;;;;0.00;0.00;;;5.10;99.90;;;;;;4977375;28;20373;-69
2021/12/12 14:08:06;;;;;;;0.10;0.10;;;5.10;99.90;;;;;;4977052;28;20034;-69
2021/12/12 14:10:45;;;;;;;0.20;0.20;;;5.20;99.90;;;;;;4977217;28;20045;-75
2021/12/12 14:13:18;;;;;;;0.13;0.13;;;5.20;99.90;;;;;;4977384;28;20031;-68
2021/12/12 14:16:19;;;;;;;0.15;0.15;;;5.20;99.90;;;;;;4975599;28;20038;-67
2021/12/12 14:18:53;;;;;;;0.08;0.08;;;5.20;99.90;;;;;;4977051;28;20031;-68
2021/12/12 14:21:21;;;;;;;0.20;0.20;;;5.20;99.90;;;;;;4976058;28;20069;-68